Time;durP1;ratioP1;P1;durP2;ratioP2;P2;SDS_P1;SDS_P2;PMS_P1;PMS_P2;Temp;Humidity;BMP_temperature;BMP_pressure;BME280_temperature;BME280_humidity;BME280_pressure;Samples;Min_cycle;Max_cycle;Signal;HPM_P1;HPM_P2
2021/05/05 00:00:54;;;;;;;;;;;10.70;99.90;;;;;;8364698;28;19908;-67
2021/05/05 00:04:54;;;;;;;;;;;10.70;99.90;;;;;;8364533;28;19991;-67
2021/05/05 00:08:55;;;;;;;;;;;10.70;99.90;;;;;;8363299;28;19936;-67
2021/05/05 00:12:55;;;;;;;;;;;10.70;99.90;;;;;;8363999;28;19916;-67
2021/05/05 00:16:56;;;;;;;;;;;10.70;99.90;;;;;;8362717;28;19908;-67
2021/05/05 00:20:57;;;;;;;;;;;10.60;99.90;;;;;;8364301;28;19912;-67
2021/05/05 00:24:57;;;;;;;;;;;10.50;99.90;;;;;;8364494;28;19916;-67
2021/05/05 00:28:58;;;;;;;;;;;10.40;99.90;;;;;;8364436;28;20508;-68
2021/05/05 00:32:58;;;;;;;;;;;10.20;99.90;;;;;;8363614;28;19916;-68
2021/05/05 00:36:59;;;;;;;;;;;10.10;99.90;;;;;;8363036;28;19931;-67
2021/05/05 00:40:59;;;;;;;;;;;10.00;99.90;;;;;;8363918;28;19945;-67
2021/05/05 00:45:01;;;;;;;;;;;10.00;99.90;;;;;;8364012;28;19915;-67
2021/05/05 00:49:02;;;;;;;;;;;10.00;99.90;;;;;;8363986;28;20383;-67
2021/05/05 00:53:03;;;;;;;;;;;10.00;99.90;;;;;;8362143;28;19915;-67
2021/05/05 00:57:03;;;;;;;;;;;9.90;99.90;;;;;;8363467;28;19909;-67
2021/05/05 01:01:04;;;;;;;;;;;9.90;99.90;;;;;;8363156;28;19909;-67
2021/05/05 01:05:06;;;;;;;;;;;9.80;99.90;;;;;;8362832;28;20040;-67
2021/05/05 01:09:07;;;;;;;;;;;9.80;99.90;;;;;;8362010;28;19913;-67
2021/05/05 01:13:07;;;;;;;;;;;9.80;99.90;;;;;;8363140;28;19920;-67
2021/05/05 01:17:08;;;;;;;;;;;9.80;99.90;;;;;;8363163;28;20000;-67
2021/05/05 01:21:08;;;;;;;;;;;9.70;99.90;;;;;;8362625;28;20007;-67
2021/05/05 01:25:10;;;;;;;;;;;9.70;99.90;;;;;;8362717;28;19909;-67
2021/05/05 01:29:11;;;;;;;;;;;9.70;99.90;;;;;;8362727;28;19913;-67
2021/05/05 01:33:12;;;;;;;;;;;9.60;99.90;;;;;;8362142;28;19909;-67
2021/05/05 01:37:13;;;;;;;;;;;9.60;99.90;;;;;;8361949;28;20270;-67
2021/05/05 01:41:14;;;;;;;;;;;9.70;99.90;;;;;;8362413;28;19912;-67
2021/05/05 01:45:14;;;;;;;;;;;9.60;99.90;;;;;;8361925;28;19909;-67
2021/05/05 01:49:19;;;;;;;;;;;9.50;99.90;;;;;;8360801;28;20375;-67
2021/05/05 01:53:19;;;;;;;;;;;9.60;99.90;;;;;;8361676;28;19909;-67
2021/05/05 01:57:29;;;;;;;;;;;9.60;99.90;;;;;;8361693;28;19913;-67
2021/05/05 02:01:29;;;;;;;;;;;9.60;99.90;;;;;;8361005;28;19908;-68
2021/05/05 02:05:30;;;;;;;;;;;9.50;99.90;;;;;;8358890;28;19995;-67
2021/05/05 02:09:30;;;;;;;;;;;9.50;99.90;;;;;;8359555;28;19934;-68
2021/05/05 02:13:31;;;;;;;;;;;9.60;99.90;;;;;;8360950;28;20306;-67
2021/05/05 02:17:31;;;;;;;;;;;9.50;99.90;;;;;;8361055;28;19916;-68
2021/05/05 02:21:32;;;;;;;;;;;9.50;99.90;;;;;;8360756;28;19908;-68
2021/05/05 02:25:32;;;;;;;;;;;9.30;99.90;;;;;;8360524;28;19917;-68
2021/05/05 02:29:33;;;;;;;;;;;9.30;99.90;;;;;;8359582;28;19912;-68
2021/05/05 02:33:33;;;;;;;;;;;9.30;99.90;;;;;;8360127;28;19916;-68
2021/05/05 02:37:35;;;;;;;;;;;9.30;99.90;;;;;;8360342;28;19928;-67
2021/05/05 02:41:37;;;;;;;;;;;9.20;99.90;;;;;;8360134;28;19921;-67
2021/05/05 02:45:37;;;;;;;;;;;9.30;99.90;;;;;;8358637;28;19920;-67
2021/05/05 02:49:38;;;;;;;;;;;9.30;99.90;;;;;;8360309;28;20618;-67
2021/05/05 02:53:39;;;;;;;;;;;9.20;99.90;;;;;;8358455;28;19912;-67
2021/05/05 02:57:39;;;;;;;;;;;9.10;99.90;;;;;;8359836;28;19909;-67
2021/05/05 03:01:39;;;;;;;;;;;9.00;99.90;;;;;;8359729;28;19913;-67
2021/05/05 03:05:40;;;;;;;;;;;9.10;99.90;;;;;;8357989;28;19971;-68
2021/05/05 03:09:40;;;;;;;;;;;9.10;99.90;;;;;;8359538;28;19932;-68
2021/05/05 03:13:41;;;;;;;;;;;9.20;99.90;;;;;;8357805;28;19909;-67
2021/05/05 03:17:42;;;;;;;;;;;9.10;99.90;;;;;;8359324;28;19920;-67
2021/05/05 03:21:42;;;;;;;;;;;8.80;99.90;;;;;;8358108;28;20294;-67
2021/05/05 03:25:43;;;;;;;;;;;8.40;99.90;;;;;;8358568;28;19921;-67
2021/05/05 03:29:44;;;;;;;;;;;8.20;99.90;;;;;;8359294;28;20409;-67
2021/05/05 03:33:44;;;;;;;;;;;8.10;99.90;;;;;;8358786;28;19909;-67
2021/05/05 03:37:44;;;;;;;;;;;8.00;99.90;;;;;;8359031;28;19909;-66
2021/05/05 03:41:45;;;;;;;;;;;7.70;99.90;;;;;;8358702;28;19917;-67
2021/05/05 03:45:46;;;;;;;;;;;7.60;99.90;;;;;;8354068;28;20393;-67
2021/05/05 03:49:46;;;;;;;;;;;7.40;99.90;;;;;;8354208;28;19913;-67
2021/05/05 03:53:47;;;;;;;;;;;7.30;99.90;;;;;;8356373;28;19932;-67
2021/05/05 03:57:47;;;;;;;;;;;7.10;99.90;;;;;;8327367;28;19921;-67
2021/05/05 04:01:48;;;;;;;;;;;6.90;99.90;;;;;;8336471;28;19920;-66
2021/05/05 04:05:48;;;;;;;;;;;6.90;99.90;;;;;;8358336;28;19978;-66
2021/05/05 04:09:49;;;;;;;;;;;6.70;99.90;;;;;;8347654;28;19944;-66
2021/05/05 04:13:49;;;;;;;;;;;6.50;99.90;;;;;;8358174;28;19955;-66
2021/05/05 04:17:50;;;;;;;;;;;6.50;99.90;;;;;;8352362;28;19917;-66
2021/05/05 04:21:50;;;;;;;;;;;6.30;99.90;;;;;;8358472;28;19909;-66
2021/05/05 04:25:51;;;;;;;;;;;6.30;99.90;;;;;;8347911;28;19920;-67
2021/05/05 04:29:51;;;;;;;;;;;6.50;99.90;;;;;;8357814;28;19908;-67
2021/05/05 04:33:52;;;;;;;;;;;6.50;99.90;;;;;;8356139;28;19920;-67
2021/05/05 04:37:52;;;;;;;;;;;6.50;99.90;;;;;;8350540;28;19913;-67
2021/05/05 04:41:53;;;;;;;;;;;6.70;99.90;;;;;;8350655;28;19917;-67
2021/05/05 04:45:53;;;;;;;;;;;6.60;99.90;;;;;;8330491;28;20059;-67
2021/05/05 04:49:54;;;;;;;;;;;6.90;99.90;;;;;;8330514;28;20384;-67
2021/05/05 04:53:54;;;;;;;;;;;6.70;99.90;;;;;;8339405;28;19913;-67
2021/05/05 04:57:55;;;;;;;;;;;6.60;99.90;;;;;;8343715;28;19913;-66
2021/05/05 05:01:55;;;;;;;;;;;6.40;99.90;;;;;;8339796;28;20612;-64
2021/05/05 05:05:56;;;;;;;;;;;6.30;99.90;;;;;;8330639;28;19913;-65
2021/05/05 05:09:57;;;;;;;;;;;6.30;99.90;;;;;;8329925;28;19935;-64
2021/05/05 05:13:57;;;;;;;;;;;6.30;99.90;;;;;;8337484;28;19927;-64
2021/05/05 05:17:58;;;;;;;;;;;6.30;99.90;;;;;;8345825;28;19920;-65
2021/05/05 05:22:00;;;;;;;;;;;6.50;99.90;;;;;;8345559;28;19913;-65
2021/05/05 05:26:00;;;;;;;;;;;6.40;99.90;;;;;;8345365;28;20361;-65
2021/05/05 05:30:02;;;;;;;;;;;6.30;99.90;;;;;;8342315;28;19920;-65
2021/05/05 05:34:03;;;;;;;;;;;6.30;99.90;;;;;;8347956;28;19945;-65
2021/05/05 05:38:03;;;;;;;;;;;6.30;99.90;;;;;;8345348;28;19917;-66
2021/05/05 05:42:04;;;;;;;;;;;6.40;99.90;;;;;;8339240;28;19964;-67
2021/05/05 05:46:05;;;;;;;;;;;6.30;99.90;;;;;;8327833;28;19924;-68
2021/05/05 05:50:06;;;;;;;;;;;6.30;99.90;;;;;;8329013;28;20043;-69
2021/05/05 05:54:06;;;;;;;;;;;6.70;99.90;;;;;;8337619;28;19917;-65
2021/05/05 05:58:07;;;;;;;;;;;6.70;99.90;;;;;;8346664;28;19921;-64
2021/05/05 06:02:08;;;;;;;;;;;6.90;99.90;;;;;;8357664;28;19954;-64
2021/05/05 06:06:08;;;;;;;;;;;7.00;99.90;;;;;;8361261;28;20379;-64
2021/05/05 06:10:10;;;;;;;;;;;7.10;99.90;;;;;;8342956;28;20040;-64
2021/05/05 06:14:13;;;;;;;;;;;6.90;99.90;;;;;;8326657;28;19963;-64
2021/05/05 06:18:13;;;;;;;;;;;6.90;99.90;;;;;;8326903;28;19916;-64
2021/05/05 06:22:14;;;;;;;;;;;7.20;99.90;;;;;;8327856;28;19913;-63
2021/05/05 06:26:14;;;;;;;;;;;7.40;99.90;;;;;;8329938;28;19932;-64
2021/05/05 06:30:15;;;;;;;;;;;7.60;99.90;;;;;;8327460;28;19916;-64
2021/05/05 06:34:15;;;;;;;;;;;7.80;99.90;;;;;;8353641;28;19913;-64
2021/05/05 06:38:16;;;;;;;;;;;8.20;99.90;;;;;;8359998;28;20299;-63
2021/05/05 06:42:16;;;;;;;;;;;8.40;99.90;;;;;;8336836;28;19917;-64
2021/05/05 06:46:17;;;;;;;;;;;8.30;99.90;;;;;;8345705;28;19917;-64
2021/05/05 06:50:17;;;;;;;;;;;8.30;99.90;;;;;;8343573;28;20311;-64
2021/05/05 06:54:18;;;;;;;;;;;8.10;99.90;;;;;;8335614;28;20303;-65
2021/05/05 06:58:19;;;;;;;;;;;7.90;99.90;;;;;;8340871;28;19927;-64
2021/05/05 07:02:20;;;;;;;;;;;7.90;99.90;;;;;;8331505;28;20418;-63
2021/05/05 07:06:20;;;;;;;;;;;7.70;99.90;;;;;;8338330;28;19917;-64
2021/05/05 07:10:21;;;;;;;;;;;7.70;99.90;;;;;;8334606;28;19913;-64
2021/05/05 07:14:21;;;;;;;;;;;7.80;99.90;;;;;;8351713;28;20406;-64
2021/05/05 07:18:22;;;;;;;;;;;7.80;99.90;;;;;;8336837;28;19920;-64
2021/05/05 07:22:22;;;;;;;;;;;8.00;99.90;;;;;;8343628;28;19990;-64
2021/05/05 07:26:23;;;;;;;;;;;8.20;99.90;;;;;;8340144;28;19923;-63
2021/05/05 07:30:24;;;;;;;;;;;8.50;99.90;;;;;;8325700;28;19924;-63
2021/05/05 07:34:26;;;;;;;;;;;8.30;99.90;;;;;;8336162;28;19913;-64
2021/05/05 07:50:56;;;;;;;;;;;7.70;99.90;;;;;;8338330;28;20266;-64
2021/05/05 07:54:56;;;;;;;;;;;7.70;99.90;;;;;;8348290;28;19966;-64
2021/05/05 07:59:01;;;;;;;;;;;7.80;99.90;;;;;;8348514;28;19917;-64
2021/05/05 08:03:01;;;;;;;;;;;7.70;99.90;;;;;;8342154;28;20276;-64
2021/05/05 08:07:02;;;;;;;;;;;7.60;99.90;;;;;;8340101;28;19940;-64
2021/05/05 08:11:02;;;;;;;;;;;7.50;99.90;;;;;;8355549;28;19924;-64
2021/05/05 08:15:04;;;;;;;;;;;7.70;99.90;;;;;;8359839;28;19912;-64
2021/05/05 08:19:04;;;;;;;;;;;7.80;99.90;;;;;;8342771;28;19913;-64
2021/05/05 08:23:13;;;;;;;;;;;7.80;99.90;;;;;;8346302;28;19921;-64
2021/05/05 08:27:14;;;;;;;;;;;7.80;99.90;;;;;;8342420;28;20015;-63
2021/05/05 08:31:14;;;;;;;;;;;7.70;99.90;;;;;;8349766;28;19913;-64
2021/05/05 08:35:15;;;;;;;;;;;7.60;99.90;;;;;;8343511;28;19921;-63
2021/05/05 08:39:16;;;;;;;;;;;7.60;99.90;;;;;;8350022;28;19998;-64
2021/05/05 08:43:16;;;;;;;;;;;7.50;99.90;;;;;;8330206;28;19928;-63
2021/05/05 08:47:17;;;;;;;;;;;7.30;99.90;;;;;;8331026;28;19921;-64
2021/05/05 08:51:17;;;;;;;;;;;7.20;99.90;;;;;;8331071;28;20433;-63
2021/05/05 08:55:19;;;;;;;;;;;7.30;99.90;;;;;;8340307;28;20405;-64
2021/05/05 08:59:20;;;;;;;;;;;7.20;99.90;;;;;;8345834;28;19920;-63
2021/05/05 09:03:29;;;;;;;;;;;7.10;99.90;;;;;;8337730;28;19919;-63
2021/05/05 09:07:31;;;;;;;;;;;7.20;99.90;;;;;;8330719;28;19921;-64
2021/05/05 09:11:43;;;;;;;;;;;7.20;99.90;;;;;;8330219;28;19909;-64
2021/05/05 09:15:43;;;;;;;;;;;7.20;99.90;;;;;;8330109;28;19913;-64
2021/05/05 09:19:44;;;;;;;;;;;7.20;99.90;;;;;;8336538;28;19913;-64
2021/05/05 09:23:44;;;;;;;;;;;7.30;99.90;;;;;;8332472;28;19909;-63
2021/05/05 09:28:05;;;;;;;;;;;7.40;99.90;;;;;;8338628;28;19917;-64
2021/05/05 09:32:05;;;;;;;;;;;7.50;99.90;;;;;;8354742;28;19916;-63
2021/05/05 09:36:07;;;;;;;;;;;7.50;99.90;;;;;;8356366;28;19913;-63
2021/05/05 09:40:09;;;;;;;;;;;7.50;99.90;;;;;;8351603;28;19928;-64
2021/05/05 09:44:10;;;;;;;;;;;7.50;99.90;;;;;;8359241;28;19923;-64
2021/05/05 09:48:11;;;;;;;;;;;7.80;99.90;;;;;;8361142;28;19916;-64
2021/05/05 09:52:15;;;;;;;;;;;8.20;99.90;;;;;;8361368;28;20400;-64
2021/05/05 09:56:15;;;;;;;;;;;8.20;99.90;;;;;;8354254;28;19957;-64
2021/05/05 10:00:16;;;;;;;;;;;8.30;99.90;;;;;;8339967;28;20000;-64
2021/05/05 10:04:17;;;;;;;;;;;8.70;99.90;;;;;;8343285;28;19913;-64
2021/05/05 10:08:18;;;;;;;;;;;9.20;99.90;;;;;;8351314;28;20389;-65
2021/05/05 10:12:20;;;;;;;;;;;9.60;99.90;;;;;;8338020;28;19975;-64
2021/05/05 10:16:22;;;;;;;;;;;9.80;99.90;;;;;;8358883;28;19913;-65
2021/05/05 10:20:24;;;;;;;;;;;10.40;99.90;;;;;;8352331;28;19912;-65
2021/05/05 10:24:25;;;;;;;;;;;10.40;99.90;;;;;;8360088;28;19908;-65
2021/05/05 10:28:25;;;;;;;;;;;10.30;99.90;;;;;;8339072;28;20024;-65
2021/05/05 10:32:31;;;;;;;;;;;10.80;99.90;;;;;;8356697;28;19917;-65
2021/05/05 10:36:32;;;;;;;;;;;10.90;99.90;;;;;;8361058;28;19912;-65
2021/05/05 10:40:35;;;;;;;;;;;10.40;99.90;;;;;;8351419;28;19917;-65
2021/05/05 10:44:37;;;;;;;;;;;9.80;99.90;;;;;;8362936;28;20360;-65
2021/05/05 10:48:58;;;;;;;;;;;9.60;99.90;;;;;;8329556;28;19935;-65
2021/05/05 10:53:00;;;;;;;;;;;9.10;99.90;;;;;;8326213;28;20043;-65
2021/05/05 10:57:07;;;;;;;;;;;8.70;99.90;;;;;;8326388;28;19916;-65
2021/05/05 11:01:08;;;;;;;;;;;8.80;99.90;;;;;;8332322;28;20283;-64
2021/05/05 11:05:11;;;;;;;;;;;9.10;99.90;;;;;;8351751;28;19923;-65
2021/05/05 11:09:12;;;;;;;;;;;9.70;99.90;;;;;;8352104;28;19971;-65
2021/05/05 11:13:23;;;;;;;;;;;12.30;99.90;;;;;;8349175;28;20671;-65
2021/05/05 11:17:29;;;;;;;;;;;14.30;99.90;;;;;;8357483;28;20342;-66
2021/05/05 11:21:32;;;;;;;;;;;16.60;99.90;;;;;;8334508;28;19920;-64
2021/05/05 11:25:33;;;;;;;;;;;16.20;94.70;;;;;;8344283;28;19913;-66
2021/05/05 11:29:35;;;;;;;;;;;15.00;90.30;;;;;;8358621;28;19959;-67
2021/05/05 11:33:52;;;;;;;;;;;16.00;84.10;;;;;;8353387;28;19913;-67
2021/05/05 11:38:02;;;;;;;;;;;15.60;81.10;;;;;;8324995;28;19909;-67
2021/05/05 11:42:05;;;;;;;;;;;15.30;82.30;;;;;;8331903;28;20340;-67
2021/05/05 11:46:05;;;;;;;;;;;13.70;83.10;;;;;;8352405;28;19924;-64
2021/05/05 11:50:13;;;;;;;;;;;11.70;88.10;;;;;;8347187;28;20387;-64
2021/05/05 11:54:13;;;;;;;;;;;10.80;90.20;;;;;;8352514;28;19912;-64
2021/05/05 11:58:20;;;;;;;;;;;10.80;93.10;;;;;;8351556;28;20016;-64
2021/05/05 12:02:21;;;;;;;;;;;10.70;91.30;;;;;;8356410;28;19935;-64
2021/05/05 12:06:22;;;;;;;;;;;10.70;91.30;;;;;;8347474;28;19936;-64
2021/05/05 12:10:31;;;;;;;;;;;10.70;90.90;;;;;;8337363;28;19928;-64
2021/05/05 12:14:32;;;;;;;;;;;10.80;90.40;;;;;;8334457;28;20384;-64
2021/05/05 12:18:35;;;;;;;;;;;10.90;90.10;;;;;;8353466;28;19916;-64
2021/05/05 12:22:49;;;;;;;;;;;11.40;89.80;;;;;;8344116;28;19924;-65
2021/05/05 12:26:50;;;;;;;;;;;13.00;87.90;;;;;;8324928;28;20334;-64
2021/05/05 12:30:52;;;;;;;;;;;13.70;74.70;;;;;;8332780;28;20004;-64
2021/05/05 12:34:55;;;;;;;;;;;12.70;80.80;;;;;;8355423;28;20302;-64
2021/05/05 12:38:59;;;;;;;;;;;12.50;83.20;;;;;;8349259;28;19939;-64
2021/05/05 12:43:12;;;;;;;;;;;11.70;81.40;;;;;;8330596;28;19927;-64
2021/05/05 12:47:15;;;;;;;;;;;11.70;79.40;;;;;;8325324;28;20544;-64
2021/05/05 12:51:17;;;;;;;;;;;11.60;79.70;;;;;;8327140;28;20051;-64
2021/05/05 12:55:25;;;;;;;;;;;12.00;77.00;;;;;;8338265;28;19913;-64
2021/05/05 12:59:28;;;;;;;;;;;12.80;74.80;;;;;;8336821;28;19913;-64
2021/05/05 13:03:38;;;;;;;;;;;13.60;71.80;;;;;;8349064;28;19940;-64
2021/05/05 13:07:42;;;;;;;;;;;13.60;71.00;;;;;;8351273;28;19963;-64
2021/05/05 13:11:46;;;;;;;;;;;15.60;63.20;;;;;;8372977;28;19935;-63
2021/05/05 13:16:06;;;;;;;;;;;13.70;66.20;;;;;;8328914;28;19909;-64
2021/05/05 13:33:17;;;;;;;;;;;17.40;62.20;;;;;;8350012;28;20414;-64
2021/05/05 13:37:17;;;;;;;;;;;13.30;75.40;;;;;;8344358;28;19959;-64
2021/05/05 13:41:17;;;;;;;;;;;11.70;84.80;;;;;;8360794;28;20367;-64
2021/05/05 13:45:19;;;;;;;;;;;11.10;92.30;;;;;;8360428;28;19956;-63
2021/05/05 13:49:39;;;;;;;;;;;10.60;93.10;;;;;;8349185;28;19924;-64
2021/05/05 13:53:46;;;;;;;;;;;10.10;94.50;;;;;;8347511;28;19913;-63
2021/05/05 13:57:46;;;;;;;;;;;10.40;92.30;;;;;;8360832;28;20446;-63
2021/05/05 14:01:47;;;;;;;;;;;12.10;88.50;;;;;;8355674;28;19971;-64
2021/05/05 14:05:52;;;;;;;;;;;12.10;89.00;;;;;;8332398;28;19920;-63
2021/05/05 14:09:52;;;;;;;;;;;11.80;88.80;;;;;;8357025;28;19944;-63
2021/05/05 14:13:53;;;;;;;;;;;11.30;89.70;;;;;;8343467;28;19936;-64
2021/05/05 14:17:54;;;;;;;;;;;11.00;91.60;;;;;;8352013;28;19921;-63
2021/05/05 14:21:54;;;;;;;;;;;10.50;92.80;;;;;;8350763;28;19920;-62
2021/05/05 14:25:55;;;;;;;;;;;11.70;95.20;;;;;;8355769;28;20497;-63
2021/05/05 14:29:56;;;;;;;;;;;14.70;86.90;;;;;;8337929;28;19913;-63
2021/05/05 14:33:56;;;;;;;;;;;16.10;82.80;;;;;;8345182;28;20305;-64
2021/05/05 14:42:10;;;;;;;;;;;18.40;73.30;;;;;;8336374;28;19954;-63
2021/05/05 14:50:24;;;;;;;;;;;13.90;73.40;;;;;;8352527;28;19996;-63
2021/05/05 14:54:24;;;;;;;;;;;13.40;77.60;;;;;;8334347;28;20355;-64
2021/05/05 15:02:28;;;;;;;;;;;14.70;79.30;;;;;;8344135;28;20388;-62
2021/05/05 15:06:48;;;;;;;;;;;13.70;72.30;;;;;;8336587;28;19991;-63
2021/05/05 15:11:12;;;;;;;;;;;13.00;76.80;;;;;;8341354;28;20006;-63
2021/05/05 15:15:36;;;;;;;;;;;12.30;82.10;;;;;;8339680;28;19935;-63
2021/05/05 15:36:58;;;;;;;;;;;18.20;59.00;;;;;;8353358;28;20005;-65
2021/05/05 15:45:25;;;;;;;;;;;14.70;65.20;;;;;;8357093;28;19920;-62
2021/05/05 15:49:32;;;;;;;;;;;14.00;66.30;;;;;;8350604;28;20007;-63
2021/05/05 15:53:45;;;;;;;;;;;15.10;64.90;;;;;;8346346;28;19912;-63
2021/05/05 15:57:49;;;;;;;;;;;15.50;60.80;;;;;;8337335;28;21289;-63
2021/05/05 16:18:36;;;;;;;;;;;14.30;64.80;;;;;;8356188;28;20505;-63
2021/05/05 16:26:48;;;;;;;;;;;16.50;60.30;;;;;;8352960;28;19924;-63
2021/05/05 17:04:57;;;;;;;;;;;17.40;51.80;;;;;;8354697;28;19919;-63
2021/05/05 17:13:14;;;;;;;;;;;17.20;49.80;;;;;;8341902;28;19919;-63
2021/05/05 17:17:18;;;;;;;;;;;16.10;54.40;;;;;;8335617;28;19921;-63
2021/05/05 17:21:29;;;;;;;;;;;15.90;54.60;;;;;;8345606;28;19917;-62
2021/05/05 17:25:39;;;;;;;;;;;13.30;59.70;;;;;;8347381;28;19921;-63
2021/05/05 17:30:05;;;;;;;;;;;11.70;65.40;;;;;;8346961;28;20329;-63
2021/05/05 17:43:05;;;;;;;;;;;10.60;71.60;;;;;;8317791;28;19928;-63
2021/05/05 17:43:31;;;;;;;;;;;10.40;73.90;;;;;;8333640;28;20018;-64
2021/05/05 17:48:02;;;;;;;;;;;10.30;76.30;;;;;;8343150;28;19921;-64
2021/05/05 17:52:26;;;;;;;;;;;10.20;78.40;;;;;;8343851;28;19959;-65
2021/05/05 18:14:12;;;;;;;;;;;8.70;84.10;;;;;;8341498;28;19970;-64
2021/05/05 18:18:16;;;;;;;;;;;8.60;84.20;;;;;;8344108;28;20413;-64
2021/05/05 18:26:34;;;;;;;;;;;8.40;85.10;;;;;;8339965;28;20012;-64
2021/05/05 18:30:35;;;;;;;;;;;8.20;85.40;;;;;;8334652;28;19978;-64
2021/05/05 18:34:38;;;;;;;;;;;8.00;87.50;;;;;;8328415;28;19913;-63
2021/05/05 18:38:38;;;;;;;;;;;7.90;90.00;;;;;;8325521;28;19917;-64
2021/05/05 19:21:13;;;;;;;;;;;7.00;99.90;;;;;;8337054;28;20335;-64
2021/05/05 19:47:56;;;;;;;;;;;6.50;99.90;;;;;;8349355;28;19928;-65
2021/05/05 19:51:44;;;;;;;;;;;6.30;99.90;;;;;;8347307;28;19920;-66
2021/05/05 20:15:22;;;;;;;;;;;6.00;99.90;;;;;;8343539;28;19917;-65
2021/05/05 20:51:50;;;;;;;;;;;6.00;99.90;;;;;;8364858;28;19955;-65
2021/05/05 21:13:15;;;;;;;;;;;6.20;99.90;;;;;;8363156;28;20272;-65
2021/05/05 22:52:48;;;;;;;;;;;5.70;99.90;;;;;;8360530;28;19913;-65
